LTAULTAF

Guest
Details From LTAU - ERKILET
To LTAF - ADANA
Flight Number -
Tags generated
Created
Modified
Stats Distance 112 nm / 207 km
Max Altitude 6,900 ft / 2,103 m
Waypoints 3
Social Downloads 5
Likes 0
Share VATSIM

Download

Looking for another format? Having issues loading an existing format? Contact us
Advertisement - Login to hide

Notes

Basic altitude profile: - Ascent Rate: 2500ft/min - Ascent Speed: 250kts - Cruise Altitude: 35000ft - Cruise Speed: 420kts - Descent Rate: 1500ft/min - Descent Speed: 250kts Options: - Use NATs: yes - Use PACOTS: yes - Use low airways: yes - Use high airways: yes

Route

LTAU ERHAN LTAF

ID Type Via Altitude Latitude Longitude Leg Dist Tot Dist Heading (true) Name
O LTAU APT - 0 ft / 0 m 38.77038˚ 35.49543˚ - 0 nm - ERKILET
ERHAN FIX - 6,900 ft / 2,103 m 38.52389˚ 35.22889˚ 19 nm 19 nm 220° / 220° -
O LTAF APT - 0 ft / 0 m 36.98214˚ 35.28039˚ 92 nm 112 nm 178° / 179° ADANA

Altitude Profile

Advertisement - Login to hide

LTAU

Details ICAO LTAU (ASR)
Name ERKILET
Region Turkey
Timezone Europe/Istanbul (UTC+3.0)
Stats Elevation 3,463 ft / 1,056 m (AMSL)
Location 38.770384° 35.495427°
Runways 1
Magnetic Variation 5.655° E

METAR

LTAU 180320Z VRB01KT 1900 BR FEW010 SCT080 M01/M01 Q1019 BECMG TL0350 1200 BCFG

Decode

TAF

TAF AMD TAF AMD LTAU 172336Z 1800/1824 VRB02KT 1200 BCFG SCT040 BKN100 BECMG 1804/1807 3500 BR BECMG 1807/1810 8000 TEMPO 1810/1814 16015G25KT -TSRA FEW027CB BKN035 TEMPO 1814/1818 16015G25KT -SHRA FEW027CB BKN035

Decode

Departure Runways

ID Width Length Bearing (true) Bearing (mag) Surface Threshold Offset Overrun Length
07 145 ft / 44 m 9,822 ft / 2,994 m 76.29° 70.64° Concrete 0 ft / 0 m 500 ft / 152 m
25 145 ft / 44 m 9,822 ft / 2,994 m 256.31° 250.66° Concrete 0 ft / 0 m 500 ft / 152 m

LTAF

Details ICAO LTAF (ADA)
Name ADANA
Region Turkey
Timezone Europe/Istanbul (UTC+3.0)
Stats Elevation 65 ft / 20 m (AMSL)
Location 36.982142° 35.280394°
Runways 1
Magnetic Variation 5.353° E

METAR

LTAF 180320Z VRB02KT 9999 FEW040 11/09 Q1020 NOSIG

Decode

TAF

Not found

Destination Runways

ID Width Length Bearing (true) Bearing (mag) Surface Threshold Offset Overrun Length
05 148 ft / 45 m 8,979 ft / 2,737 m 53.45° 48.10° Asphalt 0 ft / 0 m 197 ft / 60 m
23 148 ft / 45 m 8,979 ft / 2,737 m 233.47° 228.12° Asphalt 0 ft / 0 m 197 ft / 60 m

Approach Navaids

Runway Type Ident Frequency Range Bearing (true) Bearing (mag) Slope Elevation
05 Localiser IADA 108.70 MHz 18 nm / 33 km 53.01° 47.66° - 65 ft / 20 m (AMSL)
05 Glidescope IADA 108.70 MHz 10 nm / 19 km 53.46° 48.11° 3.00° 65 ft / 20 m (AMSL)